Terminal Aerodrome Forecast
Issued by NWS

Home | Current Version | Previous Version | Graphics & Text | Print | Product List | Glossary On
Versions: 1 2 3 4 5 6 7 8 9 10 11 12 13 14 15 16 17 18 19 20 21 22 23 24 25 26 27 28 29 30 31 32 33 34 35 36 37 38
000
FTUS43 KGLD 041720
TAFMCK
TAF
KMCK 041720Z 0418/0518 09011KT 3SM -TSRA BKN030CB
      TEMPO 0418/0422 1SM +TSRA BKN015CB
     FM042200 12011KT P6SM VCTS BKN035CB
     FM050300 08006KT 5SM BR SCT007 BKN030
     FM050900 08005KT 1SM BR BKN005
     FM051600 07007KT 6SM BR SCT005 BKN015=

USA.gov is the U.S. government's official web portal to all federal, state and local government web resources and services.